Time;durP1;ratioP1;P1;durP2;ratioP2;P2;SDS_P1;SDS_P2;PMS_P1;PMS_P2;Temp;Humidity;BMP_temperature;BMP_pressure;BME280_temperature;BME280_humidity;BME280_pressure;Samples;Min_cycle;Max_cycle;Signal;HPM_P1;HPM_P2
2022/04/27 00:00:52;;;;;;;2.97;2.00;;;;;;;7.26;86.16;102420.38;5003073;28;20040;-71
2022/04/27 00:03:17;;;;;;;3.78;2.05;;;;;;;7.27;86.14;102414.22;5019335;28;20033;-71
2022/04/27 00:05:43;;;;;;;5.07;1.92;;;;;;;7.28;86.04;102415.97;4999771;28;20652;-71
2022/04/27 00:08:09;;;;;;;3.67;2.22;;;;;;;7.28;85.69;102410.69;5024180;28;20664;-71
2022/04/27 00:10:34;;;;;;;6.53;2.20;;;;;;;7.27;85.81;102414.22;5024016;28;20123;-71
2022/04/27 00:12:59;;;;;;;2.00;1.77;;;;;;;7.28;85.52;102415.97;4991602;28;20056;-71
2022/04/27 00:15:27;;;;;;;5.35;2.17;;;;;;;7.27;85.47;102414.22;5002938;28;20033;-71
2022/04/27 00:17:52;;;;;;;2.00;1.65;;;;;;;7.28;85.78;102414.22;5023309;28;20521;-71
2022/04/27 00:20:18;;;;;;;4.82;1.80;;;;;;;7.28;85.38;102415.97;4997203;28;20116;-71
2022/04/27 00:22:43;;;;;;;1.90;1.80;;;;;;;7.29;85.39;102409.81;5003528;28;20032;-71
2022/04/27 00:25:09;;;;;;;4.22;1.70;;;;;;;7.28;85.43;102414.22;4997831;28;20045;-71
2022/04/27 00:27:34;;;;;;;3.50;1.70;;;;;;;7.29;85.41;102415.97;5013864;28;20965;-71
2022/04/27 00:30:00;;;;;;;3.72;1.80;;;;;;;7.31;85.69;102410.69;5023223;28;20041;-71
2022/04/27 00:32:25;;;;;;;5.82;1.70;;;;;;;7.30;85.19;102416.88;5009775;28;20303;-71
2022/04/27 00:34:51;;;;;;;1.75;1.60;;;;;;;7.29;85.08;102410.69;5004147;28;20380;-71
2022/04/27 00:37:18;;;;;;;2.17;1.50;;;;;;;7.29;84.95;102409.81;5021638;28;20284;-71
2022/04/27 00:39:44;;;;;;;2.65;1.65;;;;;;;7.28;84.53;102410.69;5014716;28;20495;-71
2022/04/27 00:42:18;;;;;;;3.15;1.83;;;;;;;7.29;84.64;102415.97;5003876;28;20124;-71
2022/04/27 00:44:44;;;;;;;1.90;1.60;;;;;;;7.28;84.68;102413.34;5013156;28;20037;-71
2022/04/27 00:47:14;;;;;;;7.82;2.10;;;;;;;7.29;84.64;102409.81;5021874;28;20033;-71
2022/04/27 00:49:42;;;;;;;2.85;1.80;;;;;;;7.27;84.68;102417.75;5015887;28;20120;-71
2022/04/27 00:52:12;;;;;;;2.75;1.92;;;;;;;7.28;84.59;102411.59;4999158;28;20044;-71
2022/04/27 00:54:41;;;;;;;1.67;1.58;;;;;;;7.29;84.76;102417.72;5023764;28;20025;-71
2022/04/27 00:57:08;;;;;;;4.38;1.58;;;;;;;7.29;84.41;102415.09;5016360;28;20503;-71
2022/04/27 00:59:34;;;;;;;2.15;1.95;;;;;;;7.28;84.24;102415.97;5010142;28;20188;-71
2022/04/27 01:01:59;;;;;;;2.55;1.75;;;;;;;7.26;84.14;102416.00;4989833;28;20036;-72
2022/04/27 01:04:26;;;;;;;3.75;1.65;;;;;;;7.27;84.23;102417.75;5009548;28;20029;-72
2022/04/27 01:06:51;;;;;;;3.88;1.77;;;;;;;7.28;84.21;102418.59;4992387;28;20500;-71
2022/04/27 01:09:18;;;;;;;3.22;1.70;;;;;;;7.27;84.06;102419.50;4985062;28;20143;-71
2022/04/27 01:11:44;;;;;;;2.67;1.55;;;;;;;7.27;84.32;102428.28;4981242;28;20048;-71
2022/04/27 01:14:10;;;;;;;1.55;1.42;;;;;;;7.26;84.09;102418.63;4992252;28;20116;-72
2022/04/27 01:16:36;;;;;;;2.88;1.65;;;;;;;7.26;83.98;102426.53;5010584;28;20026;-71
2022/04/27 01:19:02;;;;;;;1.77;1.60;;;;;;;7.26;83.95;102423.91;5008752;28;20377;-71
2022/04/27 01:21:27;;;;;;;2.40;1.67;;;;;;;7.24;84.04;102423.03;5000785;28;20041;-71
2022/04/27 01:23:53;;;;;;;2.08;1.95;;;;;;;7.22;84.10;102424.81;4991023;28;20033;-71
2022/04/27 01:26:19;;;;;;;2.75;1.67;;;;;;;7.23;84.03;102430.97;5012385;28;20022;-71
2022/04/27 01:28:45;;;;;;;3.35;1.70;;;;;;;7.23;84.12;102430.97;4994186;28;20042;-71
2022/04/27 01:31:11;;;;;;;2.42;1.63;;;;;;;7.20;84.08;102431.84;5010261;28;20034;-71
2022/04/27 01:33:38;;;;;;;5.22;1.73;;;;;;;7.19;84.07;102435.34;4985166;28;20075;-71
2022/04/27 01:36:05;;;;;;;1.85;1.58;;;;;;;7.18;83.72;102441.50;5013406;28;20033;-71
2022/04/27 01:38:38;;;;;;;5.18;1.73;;;;;;;7.15;83.80;102445.03;5014398;28;20036;-72
2022/04/27 01:41:05;;;;;;;2.88;1.60;;;;;;;7.13;83.13;102445.94;5010622;28;22138;-71
2022/04/27 01:43:31;;;;;;;2.40;1.40;;;;;;;7.10;83.10;102441.56;5014740;28;20025;-71
2022/04/27 01:45:57;;;;;;;2.15;1.70;;;;;;;7.09;82.46;102447.72;4981409;28;20040;-70
2022/04/27 01:48:23;;;;;;;3.67;1.67;;;;;;;7.09;82.19;102446.81;4995277;28;20504;-70
2022/04/27 01:50:48;;;;;;;3.88;1.52;;;;;;;7.09;81.67;102444.19;5010462;28;20033;-71
2022/04/27 01:55:59;;;;;;;2.50;1.65;;;;;;;7.07;80.50;102446.81;4998221;28;20045;-71
2022/04/27 01:58:25;;;;;;;4.45;1.60;;;;;;;7.08;80.36;102448.56;4995992;28;20412;-71
2022/04/27 02:00:51;;;;;;;1.70;1.60;;;;;;;7.09;79.46;102447.72;5011005;28;20030;-71
2022/04/27 02:03:18;;;;;;;1.58;1.35;;;;;;;7.10;79.34;102446.81;4986285;28;20042;-71
2022/04/27 02:05:44;;;;;;;2.28;1.30;;;;;;;7.13;78.92;102453.84;4990802;28;20041;-71
2022/04/27 02:08:10;;;;;;;1.70;1.40;;;;;;;7.11;78.75;102440.66;5006796;28;20392;-71
2022/04/27 02:10:36;;;;;;;2.15;1.35;;;;;;;7.13;78.62;102452.06;5002758;28;20037;-71
2022/04/27 02:13:06;;;;;;;1.58;1.48;;;;;;;7.13;78.49;102441.53;5007534;28;20559;-71
2022/04/27 02:15:32;;;;;;;3.08;1.73;;;;;;;7.11;78.59;102443.31;5006757;28;20080;-71
2022/04/27 02:17:58;;;;;;;2.08;1.50;;;;;;;7.11;78.54;102443.31;5012669;28;20028;-71
2022/04/27 02:20:23;;;;;;;1.30;1.20;;;;;;;7.11;78.25;102448.56;5010042;28;20033;-71
2022/04/27 02:22:50;;;;;;;2.58;1.52;;;;;;;7.12;78.34;102450.31;5018776;28;21434;-71
2022/04/27 02:25:16;;;;;;;1.70;1.40;;;;;;;7.12;77.75;102452.06;5001899;28;20040;-72
2022/04/27 02:27:43;;;;;;;2.30;1.60;;;;;;;7.13;78.13;102457.34;5022337;28;20508;-69
2022/04/27 02:30:09;;;;;;;1.63;1.48;;;;;;;7.13;77.54;102453.84;5020237;28;20033;-71
2022/04/27 02:32:35;;;;;;;3.50;1.60;;;;;;;7.13;77.66;102457.34;5009603;28;20102;-71
2022/04/27 02:35:00;;;;;;;1.58;1.42;;;;;;;7.12;77.88;102458.22;5001744;28;20097;-70
2022/04/27 02:37:26;;;;;;;2.65;1.38;;;;;;;7.10;78.13;102454.72;5010910;28;20045;-70
2022/04/27 02:39:51;;;;;;;3.75;2.28;;;;;;;7.11;78.12;102468.75;5029973;28;20049;-71
2022/04/27 02:42:17;;;;;;;2.20;1.60;;;;;;;7.09;78.14;102466.16;5024575;28;20041;-70
2022/04/27 02:44:44;;;;;;;2.63;1.60;;;;;;;7.08;78.37;102469.63;5022055;28;20040;-71
2022/04/27 02:47:10;;;;;;;2.42;1.92;;;;;;;7.09;78.76;102463.53;5016265;28;20049;-71
2022/04/27 02:52:19;;;;;;;2.80;1.73;;;;;;;7.10;78.80;102467.91;4997630;28;20033;-71
2022/04/27 02:54:45;;;;;;;5.85;2.30;;;;;;;7.09;79.10;102466.16;5032998;28;20033;-71
2022/04/27 02:57:11;;;;;;;4.38;2.33;;;;;;;7.07;79.21;102468.78;5027128;28;20049;-71
2022/04/27 02:59:36;;;;;;;3.50;2.00;;;;;;;7.07;79.43;102468.78;5024797;28;20133;-71
2022/04/27 03:02:02;;;;;;;2.25;2.05;;;;;;;7.09;79.44;102465.25;5040318;28;20028;-71
2022/04/27 03:04:28;;;;;;;3.65;1.85;;;;;;;7.07;79.20;102460.88;5017905;28;20132;-71
2022/04/27 03:06:53;;;;;;;2.67;1.90;;;;;;;7.06;79.72;102466.16;5011662;28;20539;-70
2022/04/27 03:09:20;;;;;;;3.45;1.77;;;;;;;7.07;79.72;102462.63;5004799;28;20570;-71
2022/04/27 03:11:45;;;;;;;3.45;1.75;;;;;;;7.05;79.49;102467.94;5029839;28;20629;-71
2022/04/27 03:14:11;;;;;;;2.80;1.90;;;;;;;7.05;79.14;102465.28;4994212;28;20128;-71
2022/04/27 03:16:36;;;;;;;4.25;1.77;;;;;;;7.06;79.29;102471.41;5032509;28;20036;-71
2022/04/27 03:19:02;;;;;;;2.65;1.75;;;;;;;7.05;79.33;102470.56;5026988;28;20037;-70
2022/04/27 03:21:31;;;;;;;2.17;1.92;;;;;;;7.04;78.77;102471.41;4994845;28;20593;-71
2022/04/27 03:23:57;;;;;;;2.65;2.20;;;;;;;7.05;78.72;102461.78;5034735;28;20082;-71
2022/04/27 03:26:22;;;;;;;2.10;1.77;;;;;;;7.04;78.79;102452.97;5033183;28;20033;-72
2022/04/27 03:28:48;;;;;;;2.38;1.88;;;;;;;7.05;78.47;102464.41;5034191;28;20033;-70
2022/04/27 03:31:13;;;;;;;2.78;1.92;;;;;;;7.04;78.41;102463.50;5034227;28;20049;-70
2022/04/27 03:33:39;;;;;;;2.88;1.75;;;;;;;7.05;77.98;102464.41;5035816;28;20454;-69
2022/04/27 03:36:06;;;;;;;2.17;1.90;;;;;;;7.05;77.72;102469.66;5011900;28;20104;-69
2022/04/27 03:38:31;;;;;;;3.85;1.50;;;;;;;7.06;77.63;102468.78;5019559;28;21374;-69
2022/04/27 03:40:57;;;;;;;2.75;1.92;;;;;;;7.06;78.14;102471.41;5040615;28;20143;-68
2022/04/27 03:43:23;;;;;;;3.38;2.08;;;;;;;7.06;77.53;102474.94;5038216;28;20621;-71
2022/04/27 03:45:48;;;;;;;2.03;1.80;;;;;;;7.05;77.33;102478.47;5014828;28;20059;-71
2022/04/27 03:48:14;;;;;;;3.05;1.85;;;;;;;7.06;77.13;102476.69;5012334;28;20556;-71
2022/04/27 03:50:40;;;;;;;4.78;2.05;;;;;;;7.06;76.64;102477.56;5008370;28;20059;-71
2022/04/27 03:53:07;;;;;;;3.40;2.00;;;;;;;7.05;76.53;102482.84;5014550;28;20120;-71
2022/04/27 03:55:36;;;;;;;2.20;2.00;;;;;;;7.05;76.25;102483.72;5034244;28;20034;-71
2022/04/27 03:58:05;;;;;;;2.20;1.85;;;;;;;7.05;76.16;102478.47;5023287;28;20052;-71
2022/04/27 04:00:31;;;;;;;3.65;2.10;;;;;;;7.05;76.20;102472.31;5004405;28;20381;-70
2022/04/27 04:03:01;;;;;;;2.20;1.77;;;;;;;7.05;76.30;102480.22;5006275;28;20089;-70
2022/04/27 04:05:28;;;;;;;3.63;1.90;;;;;;;7.04;76.28;102478.47;4981899;28;20025;-71
2022/04/27 04:07:53;;;;;;;2.85;1.80;;;;;;;7.03;75.93;102476.72;5024375;28;20144;-71
2022/04/27 04:10:19;;;;;;;3.17;2.00;;;;;;;7.03;76.31;102484.63;5004707;28;20047;-71
2022/04/27 04:12:45;;;;;;;2.53;1.85;;;;;;;7.03;76.02;102476.72;5004941;28;20536;-71
2022/04/27 04:15:11;;;;;;;2.35;2.13;;;;;;;7.03;75.73;102487.25;5025892;28;20488;-69
2022/04/27 04:17:37;;;;;;;3.45;2.08;;;;;;;7.04;76.31;102481.09;5011146;28;20041;-70
2022/04/27 04:20:03;;;;;;;2.08;1.83;;;;;;;7.03;76.08;102481.97;5024146;28;20037;-70
2022/04/27 04:22:29;;;;;;;2.97;2.10;;;;;;;7.04;76.15;102487.22;4999844;28;20033;-69
2022/04/27 04:30:37;;;;;;;3.50;1.95;;;;;;;7.06;76.23;102492.50;5020101;28;20033;-70
2022/04/27 04:33:02;;;;;;;2.63;1.80;;;;;;;7.06;76.03;102497.75;5012474;28;20029;-70
2022/04/27 04:35:28;;;;;;;4.80;2.17;;;;;;;7.06;75.77;102508.28;5005043;28;20257;-70
2022/04/27 04:37:54;;;;;;;2.70;2.00;;;;;;;7.07;76.12;102504.78;5025637;28;20554;-70
2022/04/27 04:40:20;;;;;;;2.92;1.80;;;;;;;7.07;75.99;102507.41;5023751;28;20044;-70
2022/04/27 04:42:46;;;;;;;2.88;2.15;;;;;;;7.08;76.38;102506.50;5020635;28;20033;-70
2022/04/27 04:45:11;;;;;;;3.10;2.05;;;;;;;7.07;76.38;102510.94;5010323;28;20045;-71
2022/04/27 04:47:37;;;;;;;3.63;2.25;;;;;;;7.09;76.12;102510.94;5025647;28;20090;-71
2022/04/27 04:50:03;;;;;;;2.35;2.00;;;;;;;7.10;76.22;102515.31;5024130;28;20049;-71
2022/04/27 04:52:29;;;;;;;3.50;2.08;;;;;;;7.13;76.22;102514.44;5022444;28;20088;-71
2022/04/27 04:54:54;;;;;;;4.28;2.15;;;;;;;7.13;76.66;102514.44;5022348;28;20057;-70
2022/04/27 04:57:20;;;;;;;4.93;2.65;;;;;;;7.12;77.10;102510.91;5026695;28;20098;-71
2022/04/27 04:59:45;;;;;;;2.92;2.20;;;;;;;7.14;76.95;102517.03;5026374;28;20037;-70
2022/04/27 05:02:10;;;;;;;4.10;2.50;;;;;;;7.15;77.26;102524.03;5009842;28;20105;-71
2022/04/27 05:04:36;;;;;;;2.92;2.03;;;;;;;7.18;77.21;102523.16;5006116;28;20554;-70
2022/04/27 05:07:02;;;;;;;3.20;2.28;;;;;;;7.18;77.28;102524.06;5005374;28;20033;-71
2022/04/27 05:09:27;;;;;;;2.90;2.08;;;;;;;7.20;77.48;102527.53;4998476;28;20029;-71
2022/04/27 05:11:53;;;;;;;3.38;2.00;;;;;;;7.21;77.82;102533.69;5014010;28;20095;-71
2022/04/27 05:14:18;;;;;;;3.83;2.47;;;;;;;7.23;77.40;102531.06;5004393;28;20040;-71
2022/04/27 05:16:44;;;;;;;3.55;2.40;;;;;;;7.23;77.97;102536.34;5022756;28;20025;-71
2022/04/27 05:19:09;;;;;;;4.45;2.72;;;;;;;7.24;78.33;102540.72;5022996;28;20037;-70
2022/04/27 05:21:34;;;;;;;5.32;2.65;;;;;;;7.26;78.31;102538.94;5020536;28;20029;-71
2022/04/27 05:24:00;;;;;;;3.35;2.22;;;;;;;7.27;78.44;102544.22;5001882;28;20033;-70
2022/04/27 05:26:26;;;;;;;6.15;2.47;;;;;;;7.29;78.63;102550.34;5022403;28;20021;-71
2022/04/27 05:31:54;;;;;;;4.78;2.85;;;;;;;7.33;79.02;102549.47;5024034;28;20116;-71
2022/04/27 05:34:20;;;;;;;2.85;2.20;;;;;;;7.36;78.86;102551.22;5025295;28;20135;-70
2022/04/27 05:36:45;;;;;;;4.85;2.67;;;;;;;7.39;79.29;102552.94;5022031;28;20504;-72
2022/04/27 05:39:11;;;;;;;3.35;2.20;;;;;;;7.41;79.31;102557.31;4997322;28;20121;-74
2022/04/27 05:41:37;;;;;;;5.57;2.50;;;;;;;7.45;79.12;102566.97;5023503;28;20040;-72
2022/04/27 05:44:09;;;;;;;3.60;2.58;;;;;;;7.48;79.51;102566.94;5026381;28;20059;-71
2022/04/27 05:46:38;;;;;;;3.58;2.17;;;;;;;7.52;79.60;102566.94;5024102;28;20020;-71
2022/04/27 05:49:04;;;;;;;5.20;2.60;;;;;;;7.56;79.03;102574.81;5010520;28;20126;-71
2022/04/27 05:51:30;;;;;;;5.50;2.97;;;;;;;7.60;79.33;102576.56;5026545;28;20561;-71
2022/04/27 05:53:56;;;;;;;5.97;2.60;;;;;;;7.63;79.34;102583.56;5024103;28;20111;-71
2022/04/27 05:56:23;;;;;;;4.93;2.65;;;;;;;7.67;79.28;102584.44;5015904;28;20037;-72
2022/04/27 05:58:49;;;;;;;5.13;2.60;;;;;;;7.69;79.55;102585.31;5001562;28;20128;-71
2022/04/27 06:01:15;;;;;;;4.47;2.88;;;;;;;7.70;79.71;102584.41;5005090;28;20695;-71
2022/04/27 06:03:40;;;;;;;5.72;2.92;;;;;;;7.70;80.04;102585.31;4992036;28;20124;-71
2022/04/27 06:06:06;;;;;;;5.45;2.70;;;;;;;7.73;79.99;102584.38;5026588;28;20029;-71
2022/04/27 06:08:32;;;;;;;6.30;3.03;;;;;;;7.73;80.09;102594.94;5025337;28;20083;-71
2022/04/27 06:10:57;;;;;;;4.78;2.63;;;;;;;7.71;80.41;102591.44;5023382;28;20477;-71
2022/04/27 06:13:24;;;;;;;5.10;2.80;;;;;;;7.71;81.06;102594.97;5022841;28;20025;-71
2022/04/27 06:15:50;;;;;;;4.90;3.00;;;;;;;7.73;80.88;102593.19;5005493;28;20025;-71
2022/04/27 06:18:16;;;;;;;5.60;2.85;;;;;;;7.74;81.15;102596.72;5021707;28;20048;-69
2022/04/27 06:20:42;;;;;;;11.10;2.50;;;;;;;7.75;81.56;102604.59;5003266;28;20468;-70
2022/04/27 06:23:09;;;;;;;9.50;3.65;;;;;;;7.79;81.70;102604.59;5023688;28;20210;-70
2022/04/27 06:25:35;;;;;;;3.53;2.47;;;;;;;7.77;81.84;102609.84;5008051;28;20030;-70
2022/04/27 06:28:02;;;;;;;5.75;2.38;;;;;;;7.77;81.83;102608.97;4996749;28;20451;-70
2022/04/27 06:30:28;;;;;;;7.32;2.53;;;;;;;7.76;82.11;102616.03;5004508;28;20037;-71
2022/04/27 06:32:53;;;;;;;7.70;2.90;;;;;;;7.75;82.57;102617.78;5027788;28;20182;-70
2022/04/27 06:35:19;;;;;;;4.63;2.25;;;;;;;7.74;82.66;102621.28;5026005;28;20037;-71
2022/04/27 06:37:45;;;;;;;6.70;2.20;;;;;;;7.74;82.57;102617.81;5023862;28;20045;-70
2022/04/27 06:40:11;;;;;;;4.25;2.25;;;;;;;7.73;82.44;102627.47;5022820;28;20488;-70
2022/04/27 06:42:37;;;;;;;4.55;2.03;;;;;;;7.72;82.26;102630.97;5018887;28;20044;-69
2022/04/27 06:45:03;;;;;;;5.40;2.40;;;;;;;7.69;81.84;102630.97;5020965;28;20053;-71
2022/04/27 06:47:28;;;;;;;3.70;2.25;;;;;;;7.70;82.11;102635.41;5018325;28;20029;-71
2022/04/27 06:49:54;;;;;;;8.68;2.10;;;;;;;7.71;81.84;102630.97;5005702;28;20029;-72
2022/04/27 06:52:19;;;;;;;6.22;1.85;;;;;;;7.68;81.68;102634.50;5017865;28;20515;-71
2022/04/27 06:54:45;;;;;;;6.43;1.80;;;;;;;7.67;81.66;102632.75;5021524;28;20060;-71
2022/04/27 06:57:11;;;;;;;6.53;1.77;;;;;;;7.69;81.41;102633.63;5021596;28;20645;-71
2022/04/27 06:59:36;;;;;;;3.05;1.58;;;;;;;7.69;81.25;102638.88;4983493;28;20115;-71
2022/04/27 07:02:02;;;;;;;3.35;1.45;;;;;;;7.70;81.18;102642.41;5026704;28;20033;-71
2022/04/27 07:04:31;;;;;;;3.33;1.42;;;;;;;7.69;81.03;102645.94;5023455;28;20034;-71
2022/04/27 07:06:56;;;;;;;4.95;1.67;;;;;;;7.70;81.08;102638.03;4995692;28;20463;-71
2022/04/27 07:09:23;;;;;;;4.13;1.52;;;;;;;7.72;81.16;102646.81;5012548;28;20043;-71
2022/04/27 07:11:48;;;;;;;6.68;1.80;;;;;;;7.76;81.41;102647.66;4995699;28;20025;-71
2022/04/27 07:14:16;;;;;;;3.72;1.55;;;;;;;7.77;81.50;102653.78;5001802;28;20025;-71
2022/04/27 07:16:45;;;;;;;4.68;1.75;;;;;;;7.79;81.51;102654.69;5023471;28;20088;-71
2022/04/27 07:19:11;;;;;;;6.32;1.65;;;;;;;7.80;81.23;102656.44;4966922;28;20041;-71
2022/04/27 07:21:37;;;;;;;7.03;1.75;;;;;;;7.81;81.15;102656.44;5023973;28;20033;-72
2022/04/27 07:24:03;;;;;;;5.00;1.77;;;;;;;7.85;80.92;102667.84;5002260;28;20030;-72
2022/04/27 07:26:29;;;;;;;6.68;1.70;;;;;;;7.87;80.86;102671.34;5020235;28;20036;-71
2022/04/27 07:28:58;;;;;;;4.53;1.60;;;;;;;7.90;80.71;102675.72;5004815;28;20111;-71
2022/04/27 07:31:24;;;;;;;4.88;1.70;;;;;;;7.90;81.12;102671.31;4996993;28;20049;-72
2022/04/27 07:33:50;;;;;;;3.80;1.70;;;;;;;7.93;81.51;102681.88;4987299;28;20443;-72
2022/04/27 07:36:15;;;;;;;5.18;2.03;;;;;;;7.94;81.37;102675.69;5002775;28;20029;-72
2022/04/27 07:38:41;;;;;;;6.72;2.15;;;;;;;7.97;80.70;102683.63;5022502;28;20045;-72
2022/04/27 07:41:07;;;;;;;4.13;1.83;;;;;;;8.00;81.14;102691.50;5023812;28;20206;-72
2022/04/27 07:43:33;;;;;;;4.80;1.80;;;;;;;8.05;81.24;102690.63;5011265;28;20555;-72
2022/04/27 07:45:58;;;;;;;6.82;2.20;;;;;;;8.07;80.75;102692.31;5003049;28;20037;-72
2022/04/27 07:48:24;;;;;;;6.50;1.48;;;;;;;8.12;79.80;102694.97;5011370;28;20029;-71
2022/04/27 07:50:50;;;;;;;4.65;1.30;;;;;;;8.17;79.59;102701.06;5021102;28;20434;-71
2022/04/27 07:53:16;;;;;;;1.48;1.10;;;;;;;8.20;78.60;102695.78;4999836;28;20607;-71
2022/04/27 07:55:41;;;;;;;4.78;1.58;;;;;;;8.21;78.66;102697.53;5002999;28;20041;-72
2022/04/27 07:58:07;;;;;;;3.10;1.40;;;;;;;8.22;78.00;102696.66;5020764;28;20054;-72
2022/04/27 08:00:33;;;;;;;4.82;1.10;;;;;;;8.24;77.67;102694.88;5007140;28;20045;-72
2022/04/27 08:02:59;;;;;;;3.00;1.38;;;;;;;8.27;77.57;102697.50;5017891;28;20029;-72
2022/04/27 08:05:25;;;;;;;1.30;1.20;;;;;;;8.33;77.97;102698.38;4996268;28;20032;-72
2022/04/27 08:07:50;;;;;;;4.93;1.65;;;;;;;8.38;77.53;102700.06;5016801;28;20041;-71
2022/04/27 08:10:18;;;;;;;6.57;1.58;;;;;;;8.44;77.55;102704.44;5016478;28;20033;-71
2022/04/27 08:12:47;;;;;;;4.65;1.52;;;;;;;8.46;76.38;102702.69;4997618;28;20030;-71
2022/04/27 08:15:13;;;;;;;4.13;1.50;;;;;;;8.44;76.75;102707.06;4996331;28;20057;-72
2022/04/27 08:17:51;;;;;;;7.28;1.85;;;;;;;8.46;75.89;102713.25;5017203;28;20140;-72
2022/04/27 08:23:12;;;;;;;2.58;1.30;;;;;;;8.54;75.99;102702.63;5012153;28;20075;-72
2022/04/27 08:25:38;;;;;;;2.28;1.20;;;;;;;8.59;76.14;102713.16;5013304;28;20030;-71
2022/04/27 08:28:06;;;;;;;2.80;1.10;;;;;;;8.63;75.97;102709.63;5001249;28;20055;-71
2022/04/27 08:30:33;;;;;;;4.80;1.30;;;;;;;8.66;75.20;102709.63;4997071;28;20060;-71
2022/04/27 08:33:02;;;;;;;3.15;1.25;;;;;;;8.66;74.87;102714.91;5001208;28;20025;-72
2022/04/27 08:35:28;;;;;;;2.55;1.17;;;;;;;8.72;74.29;102724.53;5015264;28;20282;-72
2022/04/27 08:37:54;;;;;;;5.50;1.38;;;;;;;8.81;74.26;102720.06;5003184;28;20143;-72
2022/04/27 08:40:19;;;;;;;3.65;1.33;;;;;;;8.94;74.42;102736.66;5015736;28;20116;-72
2022/04/27 08:42:45;;;;;;;3.42;0.98;;;;;;;9.09;74.75;102729.50;4997518;28;20041;-72
2022/04/27 08:45:11;;;;;;;2.30;1.00;;;;;;;9.17;74.15;102734.72;4998044;28;20802;-72
2022/04/27 08:47:36;;;;;;;2.88;1.10;;;;;;;9.27;73.57;102728.47;5008719;28;20065;-72
2022/04/27 08:50:16;;;;;;;1.58;1.00;;;;;;;9.43;72.81;102728.31;5016086;28;20044;-72
2022/04/27 08:52:43;;;;;;;2.47;1.13;;;;;;;9.50;72.96;102727.34;5016210;28;20040;-73
2022/04/27 08:55:10;;;;;;;2.17;1.15;;;;;;;9.58;73.79;102736.06;5013478;28;20053;-72
2022/04/27 08:57:36;;;;;;;4.30;1.23;;;;;;;9.64;72.42;102733.34;5009146;28;20092;-72
2022/04/27 09:00:07;;;;;;;4.15;1.20;;;;;;;9.72;72.73;102732.38;5005952;28;20037;-73
2022/04/27 09:02:33;;;;;;;1.52;1.00;;;;;;;9.78;72.46;102734.97;5002026;28;20029;-71
2022/04/27 09:05:04;;;;;;;3.70;1.40;;;;;;;9.83;71.33;102738.44;5024894;28;20032;-74
2022/04/27 09:07:40;;;;;;;2.70;1.10;;;;;;;9.89;71.29;102743.66;5006963;28;20105;-73
2022/04/27 09:10:07;;;;;;;4.10;1.30;;;;;;;9.90;71.71;102739.22;5019337;28;20409;-73
2022/04/27 09:12:43;;;;;;;4.68;1.05;;;;;;;9.95;71.64;102741.81;4973604;28;20045;-72
2022/04/27 09:15:09;;;;;;;5.50;1.48;;;;;;;10.03;71.86;102739.97;4992592;28;20089;-73
2022/04/27 09:23:05;;;;;;;2.10;1.05;;;;;;;10.29;70.74;102741.34;5008333;28;20424;-73
2022/04/27 09:25:35;;;;;;;2.88;1.25;;;;;;;10.36;70.33;102743.06;4992502;28;20030;-73
2022/04/27 09:28:02;;;;;;;7.65;1.40;;;;;;;10.43;71.40;102742.09;5000210;28;20062;-73
2022/04/27 09:30:32;;;;;;;5.13;1.15;;;;;;;10.46;70.27;102749.09;4993071;28;20076;-73
2022/04/27 09:32:58;;;;;;;2.38;1.17;;;;;;;10.42;70.60;102742.97;5006776;28;20125;-73
2022/04/27 09:35:35;;;;;;;4.35;1.38;;;;;;;10.49;69.73;102748.19;4993076;28;20030;-73
2022/04/27 09:38:18;;;;;;;5.53;1.70;;;;;;;10.40;68.38;102749.19;5009052;28;20559;-73
2022/04/27 09:40:50;;;;;;;4.80;1.50;;;;;;;10.32;68.99;102749.28;4992976;28;20026;-72
2022/04/27 09:43:16;;;;;;;6.80;1.60;;;;;;;10.36;69.65;102753.66;4978705;28;20132;-72
2022/04/27 09:45:43;;;;;;;4.50;1.15;;;;;;;10.32;69.59;102757.22;4993024;28;20041;-72
2022/04/27 09:48:17;;;;;;;2.60;1.13;;;;;;;10.29;69.32;102755.47;4992949;28;20038;-72
2022/04/27 09:50:55;;;;;;;3.17;1.30;;;;;;;10.28;68.76;102760.78;4992755;28;20037;-72
2022/04/27 09:53:21;;;;;;;4.40;1.38;;;;;;;10.26;69.23;102758.19;5005504;28;20042;-73
2022/04/27 09:55:52;;;;;;;5.13;1.30;;;;;;;10.30;68.71;102761.66;5009198;28;20037;-72
2022/04/27 09:58:19;;;;;;;5.13;1.38;;;;;;;10.29;68.69;102762.53;5006136;28;20049;-72
2022/04/27 10:00:46;;;;;;;2.53;1.20;;;;;;;10.31;68.37;102761.63;5026723;28;20033;-71
2022/04/27 10:03:16;;;;;;;2.10;1.00;;;;;;;10.37;68.20;102763.34;5013062;28;20083;-72
2022/04/27 10:05:42;;;;;;;3.15;1.38;;;;;;;10.42;67.87;102763.25;5012412;28;20043;-72
2022/04/27 10:08:09;;;;;;;2.97;1.02;;;;;;;10.49;67.74;102764.06;5026842;28;20032;-72
2022/04/27 10:10:42;;;;;;;1.50;1.00;;;;;;;10.53;68.18;102760.50;5011166;28;20033;-72
2022/04/27 10:13:14;;;;;;;1.80;1.08;;;;;;;10.55;67.19;102756.91;5024638;28;20041;-72
2022/04/27 10:15:43;;;;;;;1.38;1.02;;;;;;;10.60;67.71;102756.84;5012032;28;20041;-72
2022/04/27 10:18:14;;;;;;;2.60;1.02;;;;;;;10.71;68.13;102754.03;5024100;28;20512;-73
2022/04/27 10:20:40;;;;;;;2.92;1.15;;;;;;;10.74;67.01;102759.31;5022134;28;20602;-72
2022/04/27 10:23:14;;;;;;;1.80;0.90;;;;;;;10.73;67.11;102761.06;5030948;28;20089;-74
2022/04/27 10:25:40;;;;;;;2.65;1.20;;;;;;;10.79;68.04;102759.22;5029643;28;20047;-72
2022/04/27 10:28:20;;;;;;;5.90;1.35;;;;;;;10.92;67.10;102754.59;5030594;28;20032;-72
2022/04/27 10:30:46;;;;;;;1.63;1.23;;;;;;;11.01;67.16;102757.09;5015359;28;20041;-72
2022/04/27 10:33:53;;;;;;;5.15;1.17;;;;;;;11.07;66.11;102756.13;5030924;28;20059;-73
2022/04/27 10:36:28;;;;;;;2.58;1.50;;;;;;;11.14;65.94;102755.09;5030925;28;20041;-73
2022/04/27 10:39:12;;;;;;;6.82;1.67;;;;;;;11.20;65.71;102755.00;5030382;28;20037;-74
2022/04/27 10:41:42;;;;;;;3.25;1.20;;;;;;;11.26;65.42;102754.91;5015084;28;20055;-74
2022/04/27 10:44:08;;;;;;;5.18;1.52;;;;;;;11.26;64.87;102757.56;5008521;28;20030;-73
2022/04/27 10:46:38;;;;;;;3.85;1.20;;;;;;;11.24;64.95;102759.34;5024975;28;20383;-73
2022/04/27 10:49:28;;;;;;;1.63;1.20;;;;;;;11.24;64.71;102758.47;5006291;28;20029;-73
2022/04/27 10:52:00;;;;;;;7.07;2.20;;;;;;;11.20;65.41;102755.00;5015747;28;20033;-73
2022/04/27 10:54:27;;;;;;;3.20;1.08;;;;;;;11.22;65.37;102758.50;5029548;28;20029;-73
2022/04/27 10:56:53;;;;;;;1.98;1.00;;;;;;;11.21;65.47;102769.13;5031692;28;20344;-74
2022/04/27 10:59:45;;;;;;;2.20;1.23;;;;;;;11.22;64.13;102768.25;5003514;28;20049;-74
2022/04/27 11:02:39;;;;;;;2.08;1.10;;;;;;;11.24;62.09;102764.63;5012122;28;21135;-74
2022/04/27 11:05:17;;;;;;;1.88;0.90;;;;;;;11.22;64.77;102766.44;5004260;28;20602;-73
2022/04/27 11:07:55;;;;;;;3.53;1.40;;;;;;;11.19;64.48;102763.88;5027217;28;21501;-73
2022/04/27 11:10:21;;;;;;;2.80;1.30;;;;;;;11.20;64.63;102770.03;5027555;28;20026;-73
2022/04/27 11:12:52;;;;;;;7.40;1.65;;;;;;;11.20;64.49;102773.56;5002661;28;20040;-73
2022/04/27 11:15:21;;;;;;;4.60;1.90;;;;;;;11.20;63.76;102762.97;5028399;28;20044;-73
2022/04/27 11:18:00;;;;;;;3.53;1.15;;;;;;;11.17;63.54;102765.66;4989921;28;20037;-73
2022/04/27 11:20:34;;;;;;;2.90;1.30;;;;;;;11.16;63.78;102766.56;5027225;28;20045;-73
2022/04/27 11:23:03;;;;;;;6.05;1.45;;;;;;;11.25;64.52;102770.81;5016840;28;20365;-74
2022/04/27 11:25:36;;;;;;;4.60;1.25;;;;;;;11.25;63.50;102771.72;5026559;28;20109;-72
2022/04/27 11:28:05;;;;;;;3.72;1.27;;;;;;;11.23;63.72;102767.34;5026927;28;20753;-72
2022/04/27 11:30:31;;;;;;;2.17;0.90;;;;;;;11.23;63.57;102767.34;5027095;28;20667;-73
2022/04/27 11:32:58;;;;;;;2.78;1.40;;;;;;;11.31;64.47;102772.47;5028517;28;20036;-72
2022/04/27 11:35:25;;;;;;;3.28;1.85;;;;;;;11.43;63.79;102764.31;5027749;28;20035;-73
2022/04/27 11:37:54;;;;;;;4.70;1.25;;;;;;;11.56;63.29;102764.97;5027254;28;20073;-72
2022/04/27 11:40:25;;;;;;;3.95;1.10;;;;;;;11.68;63.67;102769.16;5026512;28;20037;-72
2022/04/27 11:42:51;;;;;;;3.00;1.15;;;;;;;11.75;62.43;102765.47;5026673;28;20036;-72
2022/04/27 11:45:21;;;;;;;8.55;1.60;;;;;;;11.82;63.25;102772.41;5026373;28;20078;-73
2022/04/27 11:47:56;;;;;;;3.72;1.45;;;;;;;11.79;61.22;102763.66;5010528;28;20052;-72
2022/04/27 11:50:22;;;;;;;2.92;1.58;;;;;;;11.74;61.80;102769.03;5026796;28;20064;-73
2022/04/27 11:52:59;;;;;;;3.95;1.33;;;;;;;11.68;60.99;102770.03;5004790;28;20032;-73
2022/04/27 11:55:25;;;;;;;3.97;1.23;;;;;;;11.67;61.96;102767.41;5000316;28;20494;-73